Terminal Aerodrome Forecast
Issued by NWS Jackson, MS

Home | Current Version | Previous Version | Text Only | Print | Product List | Glossary On
Versions: 1 2 3 4 5 6 7 8 9 10 11 12 13
000
FTUS44 KJAN 071740 RRA
TAFGLH
TAF
KGLH 071740Z 0718/0818 04006KT P6SM BKN015 BKN025 OVC250
     FM080000 01007KT P6SM SCT015 BKN025 BKN130
     FM080400 01011KT P6SM VCSH FEW015 SCT025 BKN050
     FM081100 36012G21KT P6SM FEW025 SCT050 BKN100=

USA.gov is the U.S. government's official web portal to all federal, state and local government web resources and services.